Time;durP1;ratioP1;P1;durP2;ratioP2;P2;SDS_P1;SDS_P2;PMS_P1;PMS_P2;Temp;Humidity;BMP_temperature;BMP_pressure;BME280_temperature;BME280_humidity;BME280_pressure;Samples;Min_cycle;Max_cycle;Signal;HPM_P1;HPM_P2
2021/09/27 00:01:17;;;;;;;11.63;10.53;;;20.10;1.00;;;;;;5093826;28;20433;-55
2021/09/27 00:03:44;;;;;;;11.77;10.60;;;20.00;1.00;;;;;;5113856;28;20271;-54
2021/09/27 00:06:11;;;;;;;10.90;10.00;;;20.00;1.00;;;;;;5114639;28;20467;-54
2021/09/27 00:08:37;;;;;;;11.23;10.23;;;20.00;1.00;;;;;;5114229;28;20831;-55
2021/09/27 00:11:08;;;;;;;12.03;10.83;;;20.10;1.00;;;;;;5115207;28;20531;-55
2021/09/27 00:13:38;;;;;;;13.43;10.50;;;20.00;1.00;;;;;;5111480;28;20416;-55
2021/09/27 00:16:06;;;;;;;12.93;11.53;;;20.00;1.00;;;;;;5104005;28;20953;-55
2021/09/27 00:18:31;;;;;;;12.77;11.67;;;20.00;1.00;;;;;;5105856;28;20420;-55
2021/09/27 00:21:00;;;;;;;10.67;9.77;;;20.00;1.00;;;;;;5125302;27;20918;-55
2021/09/27 00:23:28;;;;;;;11.47;10.37;;;20.00;1.00;;;;;;5109418;28;20707;-54
2021/09/27 00:25:53;;;;;;;11.60;10.60;;;20.00;1.00;;;;;;5112503;28;21051;-55
2021/09/27 00:28:19;;;;;;;12.20;10.93;;;19.90;1.00;;;;;;5112118;28;20536;-55
2021/09/27 00:30:47;;;;;;;12.30;11.20;;;19.90;1.00;;;;;;5103052;28;20553;-54
2021/09/27 00:33:13;;;;;;;11.10;10.00;;;19.90;1.00;;;;;;5108538;28;20187;-54
2021/09/27 00:35:40;;;;;;;11.07;10.07;;;19.80;1.00;;;;;;5114194;28;20419;-54
2021/09/27 00:38:07;;;;;;;12.30;11.20;;;19.80;1.00;;;;;;5112885;28;20556;-54
2021/09/27 00:40:38;;;;;;;10.80;9.90;;;19.80;1.00;;;;;;5114279;28;20450;-57
2021/09/27 00:43:04;;;;;;;11.23;10.10;;;19.80;1.00;;;;;;5112118;28;20411;-54
2021/09/27 00:45:34;;;;;;;11.43;10.33;;;19.80;1.00;;;;;;5108502;28;20437;-55
2021/09/27 00:48:00;;;;;;;12.23;11.23;;;19.90;1.00;;;;;;5114863;28;20491;-54
2021/09/27 00:50:29;;;;;;;11.93;10.80;;;19.90;1.00;;;;;;5112941;28;20442;-54
2021/09/27 00:52:56;;;;;;;12.17;10.97;;;19.90;1.00;;;;;;5114344;28;20182;-55
2021/09/27 00:55:24;;;;;;;12.50;11.40;;;19.80;1.00;;;;;;5112928;28;20844;-55
2021/09/27 00:57:49;;;;;;;12.80;11.70;;;19.70;1.00;;;;;;5107857;28;20448;-54
2021/09/27 01:00:19;;;;;;;12.40;11.30;;;19.70;1.00;;;;;;5096429;28;20501;-54
2021/09/27 01:02:45;;;;;;;11.77;10.63;;;19.70;1.00;;;;;;5112916;28;20423;-54
2021/09/27 01:05:13;;;;;;;11.17;10.10;;;19.80;1.00;;;;;;5111945;28;20422;-54
2021/09/27 01:08:12;;;;;;;12.10;11.07;;;19.70;1.00;;;;;;5113663;28;20260;-55
2021/09/27 01:11:17;;;;;;;11.77;10.67;;;19.70;1.00;;;;;;5114015;28;20981;-55
2021/09/27 01:13:56;;;;;;;11.30;10.27;;;19.70;1.00;;;;;;5103271;28;20481;-55
2021/09/27 01:16:32;;;;;;;11.40;10.40;;;19.70;1.00;;;;;;5109361;28;20525;-55
2021/09/27 01:19:27;;;;;;;12.90;10.80;;;19.70;1.00;;;;;;5108815;28;20769;-55
2021/09/27 01:22:40;;;;;;;11.20;10.10;;;19.70;1.00;;;;;;5112123;28;20441;-55
2021/09/27 01:25:43;;;;;;;11.70;10.60;;;19.70;1.00;;;;;;5072932;28;20441;-55
2021/09/27 01:28:49;;;;;;;11.87;10.77;;;19.70;1.00;;;;;;5112983;28;20559;-55
2021/09/27 01:31:39;;;;;;;11.30;10.30;;;19.70;1.00;;;;;;5104948;28;20415;-55
2021/09/27 01:34:38;;;;;;;13.00;10.50;;;19.80;1.00;;;;;;5109439;28;20407;-55
2021/09/27 01:37:28;;;;;;;12.20;11.20;;;20.10;1.00;;;;;;5108153;28;20498;-55
2021/09/27 01:40:21;;;;;;;12.27;11.17;;;20.10;1.00;;;;;;5101675;28;20463;-54
2021/09/27 01:43:08;;;;;;;12.97;11.77;;;20.00;1.00;;;;;;5111765;28;20454;-54
2021/09/27 01:45:48;;;;;;;11.23;10.17;;;20.20;1.00;;;;;;5108714;28;20445;-54
2021/09/27 01:48:26;;;;;;;11.50;10.10;;;20.20;1.00;;;;;;5110922;28;20998;-55
2021/09/27 01:51:00;;;;;;;12.27;10.93;;;19.90;1.00;;;;;;5110522;28;20510;-54
2021/09/27 01:53:38;;;;;;;12.93;10.23;;;19.70;1.00;;;;;;5111402;28;20461;-54
2021/09/27 01:56:12;;;;;;;12.07;10.97;;;19.70;1.00;;;;;;5109742;28;20431;-55
2021/09/27 01:59:10;;;;;;;11.10;10.10;;;19.70;1.00;;;;;;5110941;28;20459;-55
2021/09/27 02:02:10;;;;;;;11.67;10.37;;;19.80;1.00;;;;;;5104665;28;20415;-55
2021/09/27 02:05:00;;;;;;;12.27;11.03;;;19.70;1.00;;;;;;5104877;28;20442;-55
2021/09/27 02:07:29;;;;;;;12.10;10.80;;;19.70;1.00;;;;;;5108250;28;20444;-54
2021/09/27 02:10:32;;;;;;;11.37;10.10;;;19.70;1.00;;;;;;5109434;28;20921;-54
2021/09/27 02:13:09;;;;;;;10.67;9.67;;;19.70;1.00;;;;;;5101488;28;20458;-54
2021/09/27 02:15:50;;;;;;;14.10;10.60;;;19.70;1.00;;;;;;5106094;28;20422;-55
2021/09/27 02:18:26;;;;;;;11.40;10.30;;;19.60;1.00;;;;;;5101510;28;20539;-54
2021/09/27 02:20:58;;;;;;;11.13;10.17;;;19.70;1.00;;;;;;5107838;28;20494;-54
2021/09/27 02:23:41;;;;;;;12.43;11.23;;;19.70;1.00;;;;;;5112452;28;20438;-55
2021/09/27 02:26:07;;;;;;;13.10;12.00;;;19.60;1.00;;;;;;5109913;28;20441;-55
2021/09/27 02:28:33;;;;;;;11.97;10.43;;;19.70;1.00;;;;;;5112101;28;20949;-54
2021/09/27 02:31:25;;;;;;;12.17;11.07;;;19.70;1.00;;;;;;5109656;28;20416;-54
2021/09/27 02:34:13;;;;;;;11.63;10.53;;;19.70;1.00;;;;;;5107610;28;20184;-54
2021/09/27 02:36:53;;;;;;;13.47;12.17;;;19.70;1.00;;;;;;5105395;28;20524;-54
2021/09/27 02:39:29;;;;;;;12.80;11.17;;;19.80;1.00;;;;;;5111990;28;20960;-55
2021/09/27 02:42:12;;;;;;;12.67;11.67;;;19.70;1.00;;;;;;5109096;28;20454;-54
2021/09/27 02:44:38;;;;;;;11.70;10.50;;;19.70;1.00;;;;;;5093182;28;20441;-55
2021/09/27 02:47:07;;;;;;;12.23;11.03;;;19.80;1.00;;;;;;5110860;28;20455;-55
2021/09/27 02:49:45;;;;;;;14.87;13.37;;;19.70;1.00;;;;;;5109845;28;20225;-54
2021/09/27 02:52:15;;;;;;;12.40;11.20;;;19.70;1.00;;;;;;5107762;28;20419;-55
2021/09/27 02:54:48;;;;;;;12.90;11.60;;;19.70;1.00;;;;;;5111068;28;20418;-55
2021/09/27 02:57:23;;;;;;;12.17;11.07;;;19.60;1.00;;;;;;5108248;28;20464;-53
2021/09/27 03:00:12;;;;;;;12.60;11.40;;;19.60;1.00;;;;;;5105598;28;20905;-54
2021/09/27 03:02:53;;;;;;;13.77;12.40;;;19.60;1.00;;;;;;5105249;28;20473;-55
2021/09/27 03:05:45;;;;;;;13.63;12.40;;;19.60;1.00;;;;;;5103782;28;20412;-55
2021/09/27 03:08:32;;;;;;;13.83;12.63;;;19.60;1.00;;;;;;5107822;28;20441;-54
2021/09/27 03:11:24;;;;;;;13.20;11.90;;;19.50;1.00;;;;;;5105704;28;20471;-54
2021/09/27 03:14:12;;;;;;;13.30;11.77;;;19.50;1.00;;;;;;5109986;28;20411;-55
2021/09/27 03:16:41;;;;;;;13.00;11.80;;;19.40;1.00;;;;;;5112001;28;20411;-55
2021/09/27 03:19:15;;;;;;;12.63;11.43;;;19.50;1.00;;;;;;5112292;28;20511;-54
2021/09/27 03:21:57;;;;;;;12.87;11.53;;;19.50;1.00;;;;;;5111961;28;20427;-54
2021/09/27 03:24:53;;;;;;;13.73;12.37;;;19.40;1.00;;;;;;5107402;28;20467;-54
2021/09/27 03:27:37;;;;;;;13.20;11.93;;;19.40;1.00;;;;;;5109917;28;20432;-54
2021/09/27 03:30:42;;;;;;;12.57;11.50;;;19.50;1.00;;;;;;5109320;28;20503;-54
2021/09/27 03:33:21;;;;;;;15.87;14.10;;;19.50;1.00;;;;;;5083800;28;20526;-55
2021/09/27 03:35:53;;;;;;;13.70;12.30;;;19.70;1.00;;;;;;5114848;28;20437;-55
2021/09/27 03:38:37;;;;;;;15.83;14.13;;;19.80;1.00;;;;;;5112211;28;20421;-55
2021/09/27 03:41:12;;;;;;;15.43;13.80;;;19.60;1.00;;;;;;5115410;28;20439;-55
2021/09/27 03:44:03;;;;;;;16.13;14.50;;;19.50;1.00;;;;;;5109343;28;20500;-55
2021/09/27 03:46:48;;;;;;;16.27;14.67;;;19.50;1.00;;;;;;5108059;28;21026;-55
2021/09/27 03:49:25;;;;;;;15.93;14.33;;;19.40;1.00;;;;;;5109020;28;20454;-54
2021/09/27 03:51:55;;;;;;;17.60;14.90;;;19.30;1.00;;;;;;5110206;28;20949;-55
2021/09/27 03:54:31;;;;;;;16.33;14.63;;;19.10;21.00;;;;;;5115401;28;20951;-55
2021/09/27 03:57:01;;;;;;;15.40;13.50;;;19.10;25.00;;;;;;5108604;28;20979;-54
2021/09/27 03:59:35;;;;;;;14.73;13.33;;;19.10;40.30;;;;;;5114447;28;20415;-54
2021/09/27 04:02:47;;;;;;;15.50;13.23;;;19.00;49.30;;;;;;5112918;28;20531;-55
2021/09/27 04:05:33;;;;;;;16.43;12.83;;;19.00;67.00;;;;;;5065951;27;20499;-57
2021/09/27 04:08:10;;;;;;;13.23;11.93;;;19.00;77.50;;;;;;5113638;28;20421;-55
2021/09/27 04:11:04;;;;;;;13.93;12.63;;;18.90;65.70;;;;;;5114330;28;20409;-55
2021/09/27 04:13:35;;;;;;;14.63;13.20;;;18.90;91.30;;;;;;5112381;28;20924;-56
2021/09/27 04:16:20;;;;;;;15.40;13.87;;;18.90;99.90;;;;;;5113450;28;20415;-56
2021/09/27 04:19:21;;;;;;;15.43;13.90;;;18.90;99.90;;;;;;5113960;28;20407;-55
2021/09/27 04:22:14;;;;;;;14.90;13.33;;;19.00;99.90;;;;;;5113883;28;20430;-55
2021/09/27 04:25:01;;;;;;;15.10;13.60;;;18.90;99.90;;;;;;5113926;28;20447;-55
2021/09/27 04:27:54;;;;;;;14.63;13.23;;;19.00;99.90;;;;;;5113759;28;20474;-57
2021/09/27 04:30:32;;;;;;;14.07;12.67;;;19.20;99.90;;;;;;5113515;28;20406;-56
2021/09/27 04:33:17;;;;;;;15.30;13.77;;;19.10;99.90;;;;;;5113421;28;20441;-55
2021/09/27 04:36:10;;;;;;;15.63;14.07;;;19.10;99.90;;;;;;5113687;28;20418;-54
2021/09/27 04:38:37;;;;;;;17.63;13.30;;;19.10;99.90;;;;;;5108596;28;20738;-54
2021/09/27 04:41:28;;;;;;;15.57;14.00;;;19.10;99.90;;;;;;5111659;28;20427;-54
2021/09/27 04:44:26;;;;;;;14.10;12.70;;;19.10;99.90;;;;;;5113350;27;20436;-54
2021/09/27 04:47:09;;;;;;;15.37;13.87;;;19.10;99.90;;;;;;5109913;28;20468;-54
2021/09/27 04:49:53;;;;;;;15.70;14.03;;;19.10;99.90;;;;;;5106692;28;20472;-54
2021/09/27 04:52:43;;;;;;;15.43;13.93;;;19.00;99.90;;;;;;5113066;28;20513;-53
2021/09/27 04:55:30;;;;;;;16.30;12.97;;;19.00;99.90;;;;;;5112829;28;20416;-53
2021/09/27 04:58:32;;;;;;;14.57;13.00;;;19.00;99.90;;;;;;5113602;28;20416;-53
2021/09/27 05:01:08;;;;;;;14.37;12.87;;;18.90;99.90;;;;;;5101116;28;20482;-54
2021/09/27 05:03:55;;;;;;;14.23;12.83;;;18.90;99.90;;;;;;5113160;28;20495;-54
2021/09/27 05:06:50;;;;;;;14.93;13.17;;;18.80;99.90;;;;;;5098395;28;20802;-54
2021/09/27 05:09:39;;;;;;;14.30;12.97;;;18.80;99.90;;;;;;5106279;28;20436;-54
2021/09/27 05:12:17;;;;;;;15.20;13.70;;;18.80;99.90;;;;;;5105006;28;21038;-54
2021/09/27 05:15:26;;;;;;;16.17;14.60;;;18.90;99.90;;;;;;5091522;28;20450;-54
2021/09/27 05:18:24;;;;;;;16.53;15.00;;;18.90;99.90;;;;;;5107868;28;20436;-54
2021/09/27 05:21:04;;;;;;;16.60;15.00;;;18.80;99.90;;;;;;5104355;28;20796;-54
2021/09/27 05:23:29;;;;;;;17.90;15.97;;;18.80;99.90;;;;;;5112130;28;20440;-55
2021/09/27 05:26:33;;;;;;;16.13;14.53;;;18.80;99.90;;;;;;5110393;28;20460;-54
2021/09/27 05:29:22;;;;;;;17.07;15.30;;;18.90;99.90;;;;;;5100853;28;20662;-54
2021/09/27 05:32:01;;;;;;;17.20;15.40;;;18.90;99.90;;;;;;5107241;28;20794;-54
2021/09/27 05:34:47;;;;;;;19.23;15.20;;;18.90;99.90;;;;;;5110801;28;20454;-54
2021/09/27 05:37:18;;;;;;;15.93;14.40;;;18.90;99.90;;;;;;5064177;28;20754;-54
2021/09/27 05:40:08;;;;;;;18.23;15.80;;;18.90;99.90;;;;;;5110975;28;20428;-55
2021/09/27 05:42:52;;;;;;;18.13;16.03;;;19.00;99.90;;;;;;5109612;28;20410;-54
2021/09/27 05:45:22;;;;;;;17.10;15.43;;;19.10;99.90;;;;;;5104803;28;20798;-55
2021/09/27 05:47:55;;;;;;;16.77;15.07;;;19.10;99.90;;;;;;5104791;28;20946;-54
2021/09/27 05:50:47;;;;;;;15.87;14.40;;;19.20;99.90;;;;;;5094623;28;20479;-53
2021/09/27 05:53:40;;;;;;;17.00;15.30;;;19.20;98.90;;;;;;5103116;28;20951;-55
2021/09/27 05:56:43;;;;;;;22.00;19.80;;;19.10;96.20;;;;;;5107009;28;20418;-55
2021/09/27 05:59:29;;;;;;;16.50;14.83;;;19.10;98.10;;;;;;5070318;28;20505;-55
2021/09/27 06:02:32;;;;;;;18.43;16.70;;;19.10;99.60;;;;;;5110118;28;20418;-55
2021/09/27 06:05:01;;;;;;;16.10;14.60;;;19.10;98.00;;;;;;5107996;27;20725;-54
2021/09/27 06:07:55;;;;;;;18.20;16.60;;;19.20;96.50;;;;;;5087619;28;20449;-54
2021/09/27 06:10:33;;;;;;;16.57;14.90;;;19.20;99.90;;;;;;5106940;28;21017;-54
2021/09/27 06:13:20;;;;;;;16.83;15.20;;;19.20;99.90;;;;;;5107062;28;21375;-54
2021/09/27 06:15:49;;;;;;;16.20;14.70;;;19.20;99.10;;;;;;5111437;28;22237;-54
2021/09/27 06:18:25;;;;;;;17.80;16.20;;;19.30;91.50;;;;;;5111469;28;20445;-55
2021/09/27 06:21:13;;;;;;;17.37;15.57;;;19.30;91.60;;;;;;5107253;28;20450;-55
2021/09/27 06:24:16;;;;;;;17.30;15.60;;;19.30;86.40;;;;;;5107707;28;20444;-56
2021/09/27 06:26:53;;;;;;;15.63;14.13;;;19.30;86.10;;;;;;5109077;28;20493;-54
2021/09/27 06:29:43;;;;;;;17.07;15.10;;;19.30;72.30;;;;;;5110141;28;20884;-55
2021/09/27 06:32:26;;;;;;;19.20;15.73;;;19.40;61.90;;;;;;5106651;28;20971;-56
2021/09/27 06:34:55;;;;;;;17.93;16.23;;;19.40;57.30;;;;;;5102747;28;20436;-55
2021/09/27 06:37:23;;;;;;;22.57;15.70;;;19.40;57.40;;;;;;5098161;27;20441;-54
2021/09/27 06:39:51;;;;;;;17.13;15.30;;;19.50;52.00;;;;;;5109980;28;20432;-55
2021/09/27 06:42:17;;;;;;;17.17;15.47;;;19.50;41.70;;;;;;5108026;28;20546;-55
2021/09/27 06:44:45;;;;;;;16.57;14.97;;;19.60;40.80;;;;;;5102942;28;20977;-55
2021/09/27 06:47:12;;;;;;;17.67;15.87;;;19.60;32.10;;;;;;5110673;28;20466;-55
2021/09/27 06:49:37;;;;;;;17.03;15.33;;;19.60;30.00;;;;;;5105013;28;20465;-55
2021/09/27 06:52:03;;;;;;;18.03;16.13;;;19.60;29.50;;;;;;5104643;28;20428;-62
2021/09/27 06:54:29;;;;;;;17.10;15.57;;;19.60;27.10;;;;;;5110130;28;20438;-55
2021/09/27 06:56:54;;;;;;;17.30;15.60;;;19.70;23.20;;;;;;5108791;28;20270;-56
2021/09/27 06:59:20;;;;;;;16.43;14.77;;;19.60;18.30;;;;;;5110611;28;20184;-54
2021/09/27 07:01:47;;;;;;;18.30;15.40;;;19.60;21.20;;;;;;5104212;28;20191;-57
2021/09/27 07:04:13;;;;;;;15.90;14.40;;;19.60;24.30;;;;;;5111016;28;20433;-55
2021/09/27 07:06:39;;;;;;;16.63;15.00;;;19.70;23.70;;;;;;5106807;28;20465;-54
2021/09/27 07:09:04;;;;;;;17.10;15.33;;;19.80;20.90;;;;;;5107024;28;20185;-56
2021/09/27 07:11:30;;;;;;;17.23;13.87;;;19.90;12.40;;;;;;5105767;28;20274;-55
2021/09/27 07:13:55;;;;;;;16.43;14.80;;;20.00;11.40;;;;;;5104464;28;20259;-55
2021/09/27 07:16:21;;;;;;;15.77;14.27;;;20.10;9.40;;;;;;5108838;28;20220;-54
2021/09/27 07:18:46;;;;;;;16.00;14.50;;;20.40;1.00;;;;;;5107832;28;20234;-54
2021/09/27 07:21:12;;;;;;;16.30;14.70;;;20.60;1.00;;;;;;5110736;28;20266;-55
2021/09/27 07:23:39;;;;;;;16.03;14.53;;;20.80;1.00;;;;;;5111313;28;20207;-55
2021/09/27 07:26:12;;;;;;;16.60;14.80;;;21.00;1.00;;;;;;5110793;28;20277;-54
2021/09/27 07:28:37;;;;;;;15.77;14.27;;;21.10;1.00;;;;;;5110949;28;20897;-55
2021/09/27 07:31:04;;;;;;;16.27;14.77;;;21.00;1.00;;;;;;5110915;28;20459;-55
2021/09/27 07:33:30;;;;;;;17.03;15.33;;;21.20;1.00;;;;;;5110858;28;20190;-56
2021/09/27 07:35:57;;;;;;;19.00;15.93;;;21.20;1.00;;;;;;5110856;28;20410;-54
2021/09/27 07:38:23;;;;;;;15.83;14.27;;;21.20;1.00;;;;;;5110652;28;20413;-55
2021/09/27 07:40:49;;;;;;;16.80;15.23;;;21.20;1.00;;;;;;5110981;28;20835;-56
2021/09/27 07:43:15;;;;;;;15.73;14.33;;;21.20;1.00;;;;;;5110611;28;20440;-55
2021/09/27 07:45:40;;;;;;;14.63;13.33;;;21.20;1.00;;;;;;5111028;28;20428;-55
2021/09/27 07:48:10;;;;;;;17.77;16.07;;;21.30;1.00;;;;;;5110856;28;20270;-56
2021/09/27 07:50:36;;;;;;;15.90;14.40;;;21.30;1.00;;;;;;5110752;28;20412;-54
2021/09/27 07:53:03;;;;;;;17.57;15.97;;;21.30;1.00;;;;;;5110928;28;20410;-54
2021/09/27 07:55:30;;;;;;;17.27;15.70;;;21.40;1.00;;;;;;5108669;28;20440;-55
2021/09/27 07:57:56;;;;;;;16.40;14.80;;;21.40;1.00;;;;;;5106668;28;20773;-55
2021/09/27 08:00:22;;;;;;;17.00;15.20;;;21.40;1.00;;;;;;5110339;28;20415;-55
2021/09/27 08:02:47;;;;;;;17.87;16.17;;;21.40;1.00;;;;;;5098011;28;20409;-56
2021/09/27 08:05:19;;;;;;;17.77;15.87;;;21.60;1.00;;;;;;5110452;28;20174;-55
2021/09/27 08:07:45;;;;;;;20.73;16.33;;;21.70;1.00;;;;;;5110694;28;20187;-55
2021/09/27 08:10:12;;;;;;;17.13;15.33;;;21.60;1.00;;;;;;5110672;28;20432;-55
2021/09/27 08:12:38;;;;;;;16.70;15.07;;;21.60;1.00;;;;;;5110448;28;20606;-55
2021/09/27 08:15:12;;;;;;;16.90;15.10;;;21.50;1.00;;;;;;5113548;28;20517;-55
2021/09/27 08:17:38;;;;;;;15.63;13.93;;;21.50;1.00;;;;;;5113844;28;20678;-55
2021/09/27 08:20:08;;;;;;;16.10;14.60;;;21.60;1.00;;;;;;5114072;28;20437;-55
2021/09/27 08:22:34;;;;;;;15.07;13.57;;;21.80;1.00;;;;;;5112726;28;20479;-56
2021/09/27 08:24:59;;;;;;;14.33;13.00;;;21.80;1.00;;;;;;5101473;28;20931;-56
2021/09/27 08:27:25;;;;;;;16.43;15.03;;;21.80;1.00;;;;;;5113528;28;20285;-56
2021/09/27 08:29:50;;;;;;;15.90;14.40;;;21.90;1.00;;;;;;5113936;28;20175;-55
2021/09/27 08:32:16;;;;;;;14.63;13.07;;;22.00;1.00;;;;;;5113631;28;20179;-56
2021/09/27 08:34:43;;;;;;;14.77;13.10;;;22.00;1.00;;;;;;5113831;28;20190;-56
2021/09/27 08:37:09;;;;;;;14.90;13.50;;;22.00;1.00;;;;;;5113912;28;20188;-55
2021/09/27 08:39:35;;;;;;;14.50;13.00;;;22.10;1.00;;;;;;5113344;28;20406;-55
2021/09/27 08:42:01;;;;;;;13.60;12.40;;;22.30;1.00;;;;;;5113690;28;20491;-55
2021/09/27 08:44:38;;;;;;;14.50;13.00;;;22.40;1.00;;;;;;5113417;28;20262;-56
2021/09/27 08:47:26;;;;;;;14.67;13.27;;;22.50;1.00;;;;;;5113358;28;20617;-55
2021/09/27 08:50:04;;;;;;;14.37;12.87;;;22.60;1.00;;;;;;5108940;28;20537;-54
2021/09/27 08:52:32;;;;;;;13.00;11.90;;;22.70;1.00;;;;;;5111689;28;20503;-55
2021/09/27 08:55:00;;;;;;;12.30;11.13;;;22.80;1.00;;;;;;5111500;28;20463;-56
2021/09/27 08:57:57;;;;;;;12.47;11.23;;;22.90;1.00;;;;;;5111110;28;20814;-55
2021/09/27 09:00:36;;;;;;;13.73;12.43;;;22.90;1.00;;;;;;5112539;28;20444;-55
2021/09/27 09:03:13;;;;;;;14.83;13.50;;;23.00;1.00;;;;;;5109810;28;20439;-55
2021/09/27 09:05:48;;;;;;;14.57;13.03;;;23.10;1.00;;;;;;5113050;28;21024;-56
2021/09/27 09:08:24;;;;;;;14.17;12.30;;;23.10;1.00;;;;;;5113446;28;20439;-56
2021/09/27 09:10:59;;;;;;;13.07;11.87;;;23.20;1.00;;;;;;5111809;28;20428;-55
2021/09/27 09:13:29;;;;;;;13.87;12.60;;;23.30;1.00;;;;;;5113139;28;20519;-55
2021/09/27 09:16:01;;;;;;;13.83;12.60;;;23.40;1.00;;;;;;5107147;28;20440;-57
2021/09/27 09:18:32;;;;;;;15.97;13.40;;;23.40;1.00;;;;;;5112988;28;20397;-56
2021/09/27 09:21:07;;;;;;;13.70;12.37;;;23.20;1.00;;;;;;5112897;28;20415;-55
2021/09/27 09:23:41;;;;;;;11.90;10.87;;;23.10;1.00;;;;;;5110842;28;20436;-55
2021/09/27 09:26:12;;;;;;;12.77;11.47;;;23.00;1.00;;;;;;5115920;27;20430;-56
2021/09/27 09:28:41;;;;;;;12.17;11.03;;;23.00;1.00;;;;;;5111017;28;20447;-56
2021/09/27 09:31:23;;;;;;;12.80;11.60;;;23.10;1.00;;;;;;5104840;28;20424;-55
2021/09/27 09:33:54;;;;;;;12.30;11.10;;;23.30;1.00;;;;;;5111990;27;20564;-56
2021/09/27 09:36:26;;;;;;;11.70;10.60;;;23.40;1.00;;;;;;5113452;27;20443;-55
2021/09/27 09:38:52;;;;;;;11.50;10.40;;;23.60;1.00;;;;;;5113039;27;20450;-54
2021/09/27 09:41:19;;;;;;;9.57;8.27;;;23.60;1.00;;;;;;5105404;28;20423;-55
2021/09/27 09:43:49;;;;;;;9.93;7.50;;;23.70;1.00;;;;;;5111591;28;20436;-56
2021/09/27 09:46:32;;;;;;;9.47;8.50;;;23.90;1.00;;;;;;5109229;28;20870;-55
2021/09/27 09:49:16;;;;;;;10.30;9.30;;;24.20;1.00;;;;;;5106960;28;20407;-56
2021/09/27 09:51:50;;;;;;;8.90;8.10;;;24.40;1.00;;;;;;5108581;28;20456;-56
2021/09/27 09:54:20;;;;;;;9.47;8.57;;;24.60;1.00;;;;;;5100126;28;20437;-55
2021/09/27 09:57:16;;;;;;;9.47;8.57;;;24.50;1.00;;;;;;5112101;28;20477;-55
2021/09/27 10:00:14;;;;;;;9.40;8.40;;;24.40;1.00;;;;;;5105404;28;20446;-55
2021/09/27 10:02:41;;;;;;;8.77;7.90;;;24.70;1.00;;;;;;5112157;27;20438;-56
2021/09/27 10:05:20;;;;;;;8.60;7.80;;;24.90;1.00;;;;;;5111777;28;20432;-56
2021/09/27 10:07:55;;;;;;;8.50;7.70;;;25.00;1.00;;;;;;5111886;28;20430;-55
2021/09/27 10:10:31;;;;;;;8.70;7.70;;;25.20;1.00;;;;;;5112366;27;20436;-55
2021/09/27 10:12:59;;;;;;;8.67;7.40;;;25.30;1.00;;;;;;5112012;28;20520;-55
2021/09/27 10:15:34;;;;;;;9.20;8.27;;;25.40;1.00;;;;;;5111861;28;20443;-54
2021/09/27 10:18:24;;;;;;;7.97;7.17;;;25.80;1.00;;;;;;5111745;28;20436;-56
2021/09/27 10:21:04;;;;;;;7.97;7.27;;;25.90;1.00;;;;;;5097129;28;20421;-56
2021/09/27 10:23:42;;;;;;;8.33;7.37;;;25.80;1.00;;;;;;5105550;28;20437;-56
2021/09/27 10:26:38;;;;;;;7.00;6.40;;;26.00;1.00;;;;;;5111541;28;20428;-56
2021/09/27 10:29:14;;;;;;;6.60;6.00;;;26.30;1.00;;;;;;5111560;28;20447;-56
2021/09/27 10:31:43;;;;;;;7.00;6.30;;;26.20;1.00;;;;;;5111599;28;20432;-55
2021/09/27 10:34:18;;;;;;;6.33;5.30;;;25.90;1.00;;;;;;5111193;28;20410;-57
2021/09/27 10:37:04;;;;;;;6.63;5.43;;;25.80;1.00;;;;;;5110784;28;20428;-55
2021/09/27 10:39:31;;;;;;;5.90;5.33;;;25.70;1.00;;;;;;5111221;28;20453;-55
2021/09/27 10:42:11;;;;;;;8.20;5.70;;;25.50;1.00;;;;;;5111409;28;20521;-55
2021/09/27 10:44:40;;;;;;;8.97;6.47;;;25.50;1.00;;;;;;5111652;28;20405;-55
2021/09/27 10:47:21;;;;;;;6.03;5.53;;;25.20;1.00;;;;;;5111137;28;20439;-55
2021/09/27 10:49:55;;;;;;;6.27;5.53;;;25.10;1.00;;;;;;5111152;28;20423;-55
2021/09/27 10:52:24;;;;;;;6.00;5.40;;;25.20;1.00;;;;;;5109984;28;20424;-55
2021/09/27 10:55:00;;;;;;;6.80;5.60;;;25.20;1.00;;;;;;5111805;28;20643;-55
2021/09/27 10:57:39;;;;;;;5.83;5.30;;;25.10;1.00;;;;;;5111528;28;20908;-56
2021/09/27 11:00:35;;;;;;;6.53;5.93;;;24.90;1.00;;;;;;5111210;28;20412;-56
2021/09/27 11:03:21;;;;;;;6.40;5.33;;;25.00;1.00;;;;;;5107029;28;20419;-54
2021/09/27 11:06:00;;;;;;;6.77;5.53;;;25.00;1.00;;;;;;5111411;28;20528;-55
2021/09/27 11:08:40;;;;;;;6.60;6.00;;;24.80;1.00;;;;;;5111337;28;20726;-55
2021/09/27 11:11:29;;;;;;;7.13;5.53;;;24.70;1.00;;;;;;5111460;28;20424;-56
2021/09/27 11:13:57;;;;;;;6.50;5.90;;;24.70;1.00;;;;;;5104866;28;20491;-55
2021/09/27 11:16:32;;;;;;;6.80;6.17;;;24.70;1.00;;;;;;5109347;28;20442;-56
2021/09/27 11:19:07;;;;;;;8.30;5.03;;;24.90;1.00;;;;;;5110927;28;20916;-56
2021/09/27 11:21:35;;;;;;;6.20;5.60;;;25.10;1.00;;;;;;5111137;28;20486;-56
2021/09/27 11:24:21;;;;;;;7.40;5.50;;;25.30;1.00;;;;;;5110973;28;20931;-55
2021/09/27 11:27:15;;;;;;;6.20;5.60;;;25.30;1.00;;;;;;5111114;28;20433;-55
2021/09/27 11:29:47;;;;;;;6.83;6.23;;;25.50;1.00;;;;;;5098922;28;20411;-56
2021/09/27 11:32:30;;;;;;;7.27;5.67;;;25.70;1.00;;;;;;5110870;28;20428;-55
2021/09/27 11:34:57;;;;;;;6.57;5.97;;;25.80;1.00;;;;;;5110547;28;20441;-56
2021/09/27 11:37:28;;;;;;;6.13;5.57;;;26.00;1.00;;;;;;5109230;28;20438;-55
2021/09/27 11:40:15;;;;;;;6.83;5.87;;;26.00;1.00;;;;;;5111243;28;20712;-56
2021/09/27 11:43:23;;;;;;;7.03;5.53;;;26.20;1.00;;;;;;5110579;28;20503;-56
2021/09/27 11:46:13;;;;;;;7.10;5.40;;;26.60;1.00;;;;;;5110664;28;20469;-55
2021/09/27 11:48:55;;;;;;;6.00;5.37;;;26.80;1.00;;;;;;5112989;28;20452;-56
2021/09/27 11:51:25;;;;;;;5.63;5.13;;;27.00;1.00;;;;;;5114167;28;20474;-56
2021/09/27 11:54:24;;;;;;;6.33;5.60;;;26.80;1.00;;;;;;5114545;28;20416;-55
2021/09/27 11:57:16;;;;;;;6.80;6.10;;;26.90;1.00;;;;;;5114382;28;20442;-55
2021/09/27 12:00:01;;;;;;;6.27;5.67;;;26.60;1.00;;;;;;5114373;28;20457;-55
2021/09/27 12:02:49;;;;;;;6.90;6.20;;;26.20;1.00;;;;;;5106154;28;20410;-55
2021/09/27 12:05:49;;;;;;;5.80;5.30;;;25.80;1.00;;;;;;5110426;28;20435;-55
2021/09/27 12:08:29;;;;;;;6.37;5.83;;;25.80;1.00;;;;;;5112089;28;20435;-55
2021/09/27 12:11:00;;;;;;;6.10;5.60;;;25.80;1.00;;;;;;5095994;28;20444;-58
2021/09/27 12:13:37;;;;;;;5.87;5.37;;;25.70;1.00;;;;;;5114196;28;20434;-54
2021/09/27 12:16:05;;;;;;;5.53;5.13;;;25.60;1.00;;;;;;5113079;28;20424;-55
2021/09/27 12:18:53;;;;;;;5.50;5.10;;;25.50;1.00;;;;;;5104471;28;20473;-55
2021/09/27 12:21:37;;;;;;;6.27;5.67;;;25.50;1.00;;;;;;5114027;28;20440;-55
2021/09/27 12:24:24;;;;;;;6.83;6.23;;;25.60;1.00;;;;;;5114184;28;20862;-55
2021/09/27 12:27:08;;;;;;;7.20;5.70;;;25.90;1.00;;;;;;5110932;27;20474;-56
2021/09/27 12:29:56;;;;;;;6.20;5.60;;;26.10;1.00;;;;;;5113820;28;21021;-55
2021/09/27 12:32:34;;;;;;;8.00;5.90;;;26.30;1.00;;;;;;5109644;28;20412;-56
2021/09/27 12:35:00;;;;;;;6.03;5.53;;;26.30;1.00;;;;;;5112803;28;20765;-56
2021/09/27 12:37:33;;;;;;;6.00;4.80;;;26.30;1.00;;;;;;5113806;28;20412;-55
2021/09/27 12:39:59;;;;;;;7.10;5.33;;;26.10;1.00;;;;;;5110915;28;20438;-55
2021/09/27 12:42:29;;;;;;;7.50;5.33;;;26.00;1.00;;;;;;5113609;28;20478;-55
2021/09/27 12:45:22;;;;;;;5.60;5.17;;;26.10;1.00;;;;;;5111776;28;20420;-56
2021/09/27 12:47:48;;;;;;;4.67;4.37;;;26.20;1.00;;;;;;5111493;28;20440;-55
2021/09/27 12:50:19;;;;;;;8.80;5.43;;;26.10;1.00;;;;;;5113365;28;20429;-56
2021/09/27 12:52:55;;;;;;;6.07;5.50;;;26.10;1.00;;;;;;5113328;28;20808;-55
2021/09/27 12:55:25;;;;;;;5.50;5.10;;;26.00;1.00;;;;;;5107327;28;20409;-55
2021/09/27 12:57:58;;;;;;;5.80;5.30;;;25.70;1.00;;;;;;5113234;28;20413;-55
2021/09/27 13:00:39;;;;;;;6.77;6.03;;;25.70;1.00;;;;;;5112127;28;20457;-55
2021/09/27 13:03:10;;;;;;;6.00;5.50;;;25.90;1.00;;;;;;5112815;28;20438;-56
2021/09/27 13:06:10;;;;;;;5.90;5.50;;;25.80;1.00;;;;;;5113337;28;20450;-55
2021/09/27 13:08:46;;;;;;;6.57;5.97;;;25.80;1.00;;;;;;5113527;28;20470;-56
2021/09/27 13:11:26;;;;;;;7.33;6.20;;;26.00;1.00;;;;;;5111960;28;20524;-57
2021/09/27 13:14:19;;;;;;;7.30;6.60;;;26.10;1.00;;;;;;5113270;28;20407;-56
2021/09/27 13:16:50;;;;;;;6.40;5.80;;;26.10;1.00;;;;;;5092979;28;20447;-55
2021/09/27 13:19:46;;;;;;;6.47;5.90;;;26.10;1.00;;;;;;5110836;28;20446;-55
2021/09/27 13:22:38;;;;;;;7.13;6.53;;;26.10;1.00;;;;;;5093785;28;20464;-57
2021/09/27 13:25:25;;;;;;;7.00;6.40;;;26.00;1.00;;;;;;5112615;28;20419;-56
2021/09/27 13:28:00;;;;;;;6.40;5.80;;;26.00;1.00;;;;;;5112763;28;20436;-56
2021/09/27 13:30:29;;;;;;;7.37;6.70;;;25.90;1.00;;;;;;5112676;28;20477;-56
2021/09/27 13:33:13;;;;;;;10.20;6.30;;;25.90;1.00;;;;;;5112763;28;20416;-55
2021/09/27 13:35:56;;;;;;;6.33;5.80;;;25.80;1.00;;;;;;5107370;28;20449;-54